sensor_id;sensor_type;location;lat;lon;timestamp;P1;durP1;ratioP1;P2;durP2;ratioP2
29934;SDS011;19905;53.370;-6.314;2024-02-21T00:01:32;9.55;;;1.63;;
29934;SDS011;19905;53.370;-6.314;2024-02-21T00:04:02;9.48;;;1.45;;
29934;SDS011;19905;53.370;-6.314;2024-02-21T00:06:31;9.02;;;1.70;;
29934;SDS011;19905;53.370;-6.314;2024-02-21T00:09:00;5.93;;;1.58;;
29934;SDS011;19905;53.370;-6.314;2024-02-21T00:11:29;7.50;;;1.55;;
29934;SDS011;19905;53.370;-6.314;2024-02-21T00:14:00;8.77;;;1.60;;
29934;SDS011;19905;53.370;-6.314;2024-02-21T00:16:30;8.57;;;1.40;;
29934;SDS011;19905;53.370;-6.314;2024-02-21T00:18:58;6.28;;;1.40;;
29934;SDS011;19905;53.370;-6.314;2024-02-21T00:21:26;9.65;;;2.28;;
29934;SDS011;19905;53.370;-6.314;2024-02-21T00:23:55;9.95;;;1.70;;
29934;SDS011;19905;53.370;-6.314;2024-02-21T00:26:23;7.97;;;2.13;;
29934;SDS011;19905;53.370;-6.314;2024-02-21T00:28:52;11.65;;;1.70;;
29934;SDS011;19905;53.370;-6.314;2024-02-21T00:31:23;7.55;;;1.60;;
29934;SDS011;19905;53.370;-6.314;2024-02-21T00:33:51;9.30;;;1.60;;
29934;SDS011;19905;53.370;-6.314;2024-02-21T00:36:20;8.45;;;1.98;;
29934;SDS011;19905;53.370;-6.314;2024-02-21T00:38:49;7.65;;;1.80;;
29934;SDS011;19905;53.370;-6.314;2024-02-21T00:41:19;5.90;;;1.30;;
29934;SDS011;19905;53.370;-6.314;2024-02-21T00:43:47;6.32;;;1.13;;
29934;SDS011;19905;53.370;-6.314;2024-02-21T00:46:17;6.75;;;1.23;;
29934;SDS011;19905;53.370;-6.314;2024-02-21T00:48:48;6.43;;;1.17;;
29934;SDS011;19905;53.370;-6.314;2024-02-21T00:51:16;5.47;;;1.25;;
29934;SDS011;19905;53.370;-6.314;2024-02-21T00:53:45;7.00;;;1.40;;
29934;SDS011;19905;53.370;-6.314;2024-02-21T00:56:14;7.10;;;1.40;;
29934;SDS011;19905;53.370;-6.314;2024-02-21T00:58:49;7.55;;;1.20;;
29934;SDS011;19905;53.370;-6.314;2024-02-21T01:01:22;11.00;;;1.35;;
29934;SDS011;19905;53.370;-6.314;2024-02-21T01:03:52;6.40;;;1.10;;
29934;SDS011;19905;53.370;-6.314;2024-02-21T01:06:22;10.45;;;1.42;;
29934;SDS011;19905;53.370;-6.314;2024-02-21T01:08:52;4.78;;;1.20;;
29934;SDS011;19905;53.370;-6.314;2024-02-21T01:11:21;7.82;;;1.40;;
29934;SDS011;19905;53.370;-6.314;2024-02-21T01:13:51;6.25;;;1.27;;
29934;SDS011;19905;53.370;-6.314;2024-02-21T01:16:20;7.13;;;1.80;;
29934;SDS011;19905;53.370;-6.314;2024-02-21T01:18:49;6.97;;;1.33;;
29934;SDS011;19905;53.370;-6.314;2024-02-21T01:21:18;6.30;;;1.10;;
29934;SDS011;19905;53.370;-6.314;2024-02-21T01:23:47;7.65;;;1.30;;
29934;SDS011;19905;53.370;-6.314;2024-02-21T01:26:15;6.18;;;1.20;;
29934;SDS011;19905;53.370;-6.314;2024-02-21T01:28:46;8.30;;;1.17;;
29934;SDS011;19905;53.370;-6.314;2024-02-21T01:31:14;3.47;;;1.10;;
29934;SDS011;19905;53.370;-6.314;2024-02-21T01:33:43;6.75;;;1.20;;
29934;SDS011;19905;53.370;-6.314;2024-02-21T01:36:11;5.65;;;1.40;;
29934;SDS011;19905;53.370;-6.314;2024-02-21T01:38:41;4.35;;;1.30;;
29934;SDS011;19905;53.370;-6.314;2024-02-21T01:41:10;4.00;;;1.33;;
29934;SDS011;19905;53.370;-6.314;2024-02-21T01:43:38;6.75;;;1.70;;
29934;SDS011;19905;53.370;-6.314;2024-02-21T01:46:08;8.68;;;1.83;;
29934;SDS011;19905;53.370;-6.314;2024-02-21T01:48:37;4.35;;;1.40;;
29934;SDS011;19905;53.370;-6.314;2024-02-21T01:51:06;7.18;;;1.67;;
29934;SDS011;19905;53.370;-6.314;2024-02-21T01:53:35;4.90;;;1.75;;
29934;SDS011;19905;53.370;-6.314;2024-02-21T01:56:05;8.07;;;1.70;;
29934;SDS011;19905;53.370;-6.314;2024-02-21T01:58:34;7.82;;;1.85;;
29934;SDS011;19905;53.370;-6.314;2024-02-21T02:01:04;7.22;;;1.73;;
29934;SDS011;19905;53.370;-6.314;2024-02-21T02:06:06;10.30;;;2.20;;
29934;SDS011;19905;53.370;-6.314;2024-02-21T02:08:36;7.50;;;1.90;;
29934;SDS011;19905;53.370;-6.314;2024-02-21T02:11:07;9.55;;;2.20;;
29934;SDS011;19905;53.370;-6.314;2024-02-21T02:13:36;11.23;;;2.25;;
29934;SDS011;19905;53.370;-6.314;2024-02-21T02:16:06;9.52;;;2.03;;
29934;SDS011;19905;53.370;-6.314;2024-02-21T02:18:34;11.30;;;2.50;;
29934;SDS011;19905;53.370;-6.314;2024-02-21T02:21:05;7.13;;;2.20;;
29934;SDS011;19905;53.370;-6.314;2024-02-21T02:23:39;8.73;;;1.88;;
29934;SDS011;19905;53.370;-6.314;2024-02-21T02:26:10;7.70;;;2.05;;
29934;SDS011;19905;53.370;-6.314;2024-02-21T02:28:38;9.52;;;2.30;;
29934;SDS011;19905;53.370;-6.314;2024-02-21T02:31:08;6.63;;;2.30;;
29934;SDS011;19905;53.370;-6.314;2024-02-21T02:33:37;10.63;;;2.30;;
29934;SDS011;19905;53.370;-6.314;2024-02-21T02:36:05;4.82;;;1.55;;
29934;SDS011;19905;53.370;-6.314;2024-02-21T02:38:40;6.15;;;1.80;;
29934;SDS011;19905;53.370;-6.314;2024-02-21T02:41:09;9.55;;;1.90;;
29934;SDS011;19905;53.370;-6.314;2024-02-21T02:43:38;6.25;;;1.17;;
29934;SDS011;19905;53.370;-6.314;2024-02-21T02:46:07;7.25;;;1.50;;
29934;SDS011;19905;53.370;-6.314;2024-02-21T02:48:36;5.35;;;1.05;;
29934;SDS011;19905;53.370;-6.314;2024-02-21T02:51:08;6.63;;;1.48;;
29934;SDS011;19905;53.370;-6.314;2024-02-21T02:53:36;3.97;;;1.30;;
29934;SDS011;19905;53.370;-6.314;2024-02-21T02:56:08;3.75;;;1.20;;
29934;SDS011;19905;53.370;-6.314;2024-02-21T03:01:13;6.80;;;1.10;;
29934;SDS011;19905;53.370;-6.314;2024-02-21T03:03:42;4.70;;;1.20;;
29934;SDS011;19905;53.370;-6.314;2024-02-21T03:06:12;3.78;;;1.10;;
29934;SDS011;19905;53.370;-6.314;2024-02-21T03:08:41;3.70;;;1.40;;
29934;SDS011;19905;53.370;-6.314;2024-02-21T03:11:12;3.58;;;1.05;;
29934;SDS011;19905;53.370;-6.314;2024-02-21T03:13:42;4.63;;;1.20;;
29934;SDS011;19905;53.370;-6.314;2024-02-21T03:16:10;3.85;;;1.20;;
29934;SDS011;19905;53.370;-6.314;2024-02-21T03:18:40;3.67;;;1.10;;
29934;SDS011;19905;53.370;-6.314;2024-02-21T03:21:10;5.18;;;1.33;;
29934;SDS011;19905;53.370;-6.314;2024-02-21T03:23:38;5.07;;;2.30;;
29934;SDS011;19905;53.370;-6.314;2024-02-21T03:26:07;9.40;;;3.20;;
29934;SDS011;19905;53.370;-6.314;2024-02-21T03:28:38;8.45;;;3.88;;
29934;SDS011;19905;53.370;-6.314;2024-02-21T03:31:06;11.02;;;3.47;;
29934;SDS011;19905;53.370;-6.314;2024-02-21T03:33:36;5.80;;;2.10;;
29934;SDS011;19905;53.370;-6.314;2024-02-21T03:36:05;1.17;;;0.70;;
29934;SDS011;19905;53.370;-6.314;2024-02-21T03:38:34;0.50;;;0.40;;
29934;SDS011;19905;53.370;-6.314;2024-02-21T03:41:02;1.02;;;0.50;;
29934;SDS011;19905;53.370;-6.314;2024-02-21T03:43:45;0.98;;;0.60;;
29934;SDS011;19905;53.370;-6.314;2024-02-21T03:46:14;0.75;;;0.40;;
29934;SDS011;19905;53.370;-6.314;2024-02-21T03:48:45;0.40;;;0.40;;
29934;SDS011;19905;53.370;-6.314;2024-02-21T03:51:13;0.60;;;0.43;;
29934;SDS011;19905;53.370;-6.314;2024-02-21T03:53:45;1.23;;;0.50;;
29934;SDS011;19905;53.370;-6.314;2024-02-21T03:56:14;0.57;;;0.50;;
29934;SDS011;19905;53.370;-6.314;2024-02-21T03:58:45;0.60;;;0.40;;
29934;SDS011;19905;53.370;-6.314;2024-02-21T04:01:15;0.70;;;0.45;;
29934;SDS011;19905;53.370;-6.314;2024-02-21T04:03:45;0.40;;;0.40;;
29934;SDS011;19905;53.370;-6.314;2024-02-21T04:06:14;1.27;;;0.60;;
29934;SDS011;19905;53.370;-6.314;2024-02-21T04:08:44;1.60;;;0.50;;
29934;SDS011;19905;53.370;-6.314;2024-02-21T04:11:14;0.80;;;0.22;;
29934;SDS011;19905;53.370;-6.314;2024-02-21T04:13:42;0.63;;;0.50;;
29934;SDS011;19905;53.370;-6.314;2024-02-21T04:18:54;0.60;;;0.57;;
29934;SDS011;19905;53.370;-6.314;2024-02-21T04:21:24;0.30;;;0.20;;
29934;SDS011;19905;53.370;-6.314;2024-02-21T04:23:52;0.30;;;0.30;;
29934;SDS011;19905;53.370;-6.314;2024-02-21T04:26:21;0.32;;;0.30;;
29934;SDS011;19905;53.370;-6.314;2024-02-21T04:28:50;0.40;;;0.30;;
29934;SDS011;19905;53.370;-6.314;2024-02-21T04:33:53;0.30;;;0.30;;
29934;SDS011;19905;53.370;-6.314;2024-02-21T04:36:23;1.58;;;0.30;;
29934;SDS011;19905;53.370;-6.314;2024-02-21T04:38:52;0.85;;;0.22;;
29934;SDS011;19905;53.370;-6.314;2024-02-21T04:41:21;0.20;;;0.20;;
29934;SDS011;19905;53.370;-6.314;2024-02-21T04:43:50;0.50;;;0.30;;
29934;SDS011;19905;53.370;-6.314;2024-02-21T04:46:19;0.20;;;0.20;;
29934;SDS011;19905;53.370;-6.314;2024-02-21T04:48:48;0.40;;;0.40;;
29934;SDS011;19905;53.370;-6.314;2024-02-21T04:51:19;1.25;;;0.40;;
29934;SDS011;19905;53.370;-6.314;2024-02-21T04:53:49;0.45;;;0.32;;
29934;SDS011;19905;53.370;-6.314;2024-02-21T04:56:17;0.80;;;0.38;;
29934;SDS011;19905;53.370;-6.314;2024-02-21T04:58:46;0.88;;;0.60;;
29934;SDS011;19905;53.370;-6.314;2024-02-21T05:01:15;0.60;;;0.40;;
29934;SDS011;19905;53.370;-6.314;2024-02-21T05:03:43;0.95;;;0.55;;
29934;SDS011;19905;53.370;-6.314;2024-02-21T05:06:13;0.38;;;0.38;;
29934;SDS011;19905;53.370;-6.314;2024-02-21T05:08:43;1.60;;;0.40;;
29934;SDS011;19905;53.370;-6.314;2024-02-21T05:11:11;1.58;;;0.40;;
29934;SDS011;19905;53.370;-6.314;2024-02-21T05:13:41;0.28;;;0.25;;
29934;SDS011;19905;53.370;-6.314;2024-02-21T05:16:11;0.85;;;0.30;;
29934;SDS011;19905;53.370;-6.314;2024-02-21T05:18:46;1.55;;;0.20;;
29934;SDS011;19905;53.370;-6.314;2024-02-21T05:21:15;0.20;;;0.20;;
29934;SDS011;19905;53.370;-6.314;2024-02-21T05:23:44;0.52;;;0.30;;
29934;SDS011;19905;53.370;-6.314;2024-02-21T05:26:19;0.10;;;0.10;;
29934;SDS011;19905;53.370;-6.314;2024-02-21T05:28:48;0.10;;;0.10;;
29934;SDS011;19905;53.370;-6.314;2024-02-21T05:31:17;0.20;;;0.20;;
29934;SDS011;19905;53.370;-6.314;2024-02-21T05:33:48;0.20;;;0.20;;
29934;SDS011;19905;53.370;-6.314;2024-02-21T05:36:16;0.20;;;0.20;;
29934;SDS011;19905;53.370;-6.314;2024-02-21T05:38:46;0.57;;;0.28;;
29934;SDS011;19905;53.370;-6.314;2024-02-21T05:43:47;0.10;;;0.10;;
29934;SDS011;19905;53.370;-6.314;2024-02-21T05:46:19;0.20;;;0.20;;
29934;SDS011;19905;53.370;-6.314;2024-02-21T05:48:48;0.20;;;0.20;;
29934;SDS011;19905;53.370;-6.314;2024-02-21T05:51:17;0.17;;;0.17;;
29934;SDS011;19905;53.370;-6.314;2024-02-21T05:53:49;0.32;;;0.20;;
29934;SDS011;19905;53.370;-6.314;2024-02-21T05:56:23;0.40;;;0.20;;
29934;SDS011;19905;53.370;-6.314;2024-02-21T05:58:53;0.68;;;0.20;;
29934;SDS011;19905;53.370;-6.314;2024-02-21T06:01:21;1.98;;;0.20;;
29934;SDS011;19905;53.370;-6.314;2024-02-21T06:03:52;0.20;;;0.20;;
29934;SDS011;19905;53.370;-6.314;2024-02-21T06:06:21;1.60;;;0.20;;
29934;SDS011;19905;53.370;-6.314;2024-02-21T06:08:54;0.32;;;0.20;;
29934;SDS011;19905;53.370;-6.314;2024-02-21T06:11:23;0.63;;;0.20;;
29934;SDS011;19905;53.370;-6.314;2024-02-21T06:13:57;0.60;;;0.38;;
29934;SDS011;19905;53.370;-6.314;2024-02-21T06:16:33;0.10;;;0.10;;
29934;SDS011;19905;53.370;-6.314;2024-02-21T06:19:01;0.47;;;0.20;;
29934;SDS011;19905;53.370;-6.314;2024-02-21T06:24:07;1.10;;;0.17;;
29934;SDS011;19905;53.370;-6.314;2024-02-21T06:26:36;0.40;;;0.22;;
29934;SDS011;19905;53.370;-6.314;2024-02-21T06:29:11;0.20;;;0.20;;
29934;SDS011;19905;53.370;-6.314;2024-02-21T06:31:40;0.30;;;0.20;;
29934;SDS011;19905;53.370;-6.314;2024-02-21T06:34:09;0.40;;;0.30;;
29934;SDS011;19905;53.370;-6.314;2024-02-21T06:36:38;0.52;;;0.20;;
29934;SDS011;19905;53.370;-6.314;2024-02-21T06:39:14;0.73;;;0.20;;
29934;SDS011;19905;53.370;-6.314;2024-02-21T06:41:42;0.63;;;0.20;;
29934;SDS011;19905;53.370;-6.314;2024-02-21T06:44:12;0.10;;;0.10;;
29934;SDS011;19905;53.370;-6.314;2024-02-21T06:46:42;0.20;;;0.20;;
29934;SDS011;19905;53.370;-6.314;2024-02-21T06:49:10;1.05;;;0.20;;
29934;SDS011;19905;53.370;-6.314;2024-02-21T06:51:43;0.20;;;0.20;;
29934;SDS011;19905;53.370;-6.314;2024-02-21T06:54:11;1.10;;;0.20;;
29934;SDS011;19905;53.370;-6.314;2024-02-21T06:56:42;0.10;;;0.10;;
29934;SDS011;19905;53.370;-6.314;2024-02-21T06:59:10;0.57;;;0.30;;
29934;SDS011;19905;53.370;-6.314;2024-02-21T07:01:44;0.73;;;0.20;;
29934;SDS011;19905;53.370;-6.314;2024-02-21T07:04:13;0.20;;;0.20;;
29934;SDS011;19905;53.370;-6.314;2024-02-21T07:06:41;0.15;;;0.10;;
29934;SDS011;19905;53.370;-6.314;2024-02-21T07:09:10;0.43;;;0.20;;
29934;SDS011;19905;53.370;-6.314;2024-02-21T07:11:38;0.98;;;0.20;;
29934;SDS011;19905;53.370;-6.314;2024-02-21T07:14:09;0.52;;;0.20;;
29934;SDS011;19905;53.370;-6.314;2024-02-21T07:16:37;0.20;;;0.20;;
29934;SDS011;19905;53.370;-6.314;2024-02-21T07:19:07;0.10;;;0.10;;
29934;SDS011;19905;53.370;-6.314;2024-02-21T07:21:36;0.20;;;0.20;;
29934;SDS011;19905;53.370;-6.314;2024-02-21T07:24:04;0.77;;;0.20;;
29934;SDS011;19905;53.370;-6.314;2024-02-21T07:26:33;0.38;;;0.20;;
29934;SDS011;19905;53.370;-6.314;2024-02-21T07:29:03;1.40;;;0.10;;
29934;SDS011;19905;53.370;-6.314;2024-02-21T07:31:37;0.15;;;0.15;;
29934;SDS011;19905;53.370;-6.314;2024-02-21T07:34:06;0.32;;;0.20;;
29934;SDS011;19905;53.370;-6.314;2024-02-21T07:36:34;0.38;;;0.17;;
29934;SDS011;19905;53.370;-6.314;2024-02-21T07:39:04;0.10;;;0.10;;
29934;SDS011;19905;53.370;-6.314;2024-02-21T07:41:32;0.20;;;0.17;;
29934;SDS011;19905;53.370;-6.314;2024-02-21T07:44:01;0.20;;;0.20;;
29934;SDS011;19905;53.370;-6.314;2024-02-21T07:46:30;0.40;;;0.20;;
29934;SDS011;19905;53.370;-6.314;2024-02-21T07:49:00;0.57;;;0.20;;
29934;SDS011;19905;53.370;-6.314;2024-02-21T07:51:29;2.25;;;0.20;;
29934;SDS011;19905;53.370;-6.314;2024-02-21T07:53:57;0.30;;;0.20;;
29934;SDS011;19905;53.370;-6.314;2024-02-21T07:56:27;1.02;;;0.40;;
29934;SDS011;19905;53.370;-6.314;2024-02-21T07:58:56;0.30;;;0.20;;
29934;SDS011;19905;53.370;-6.314;2024-02-21T08:01:24;0.22;;;0.20;;
29934;SDS011;19905;53.370;-6.314;2024-02-21T08:03:52;0.25;;;0.20;;
29934;SDS011;19905;53.370;-6.314;2024-02-21T08:06:22;0.55;;;0.30;;
29934;SDS011;19905;53.370;-6.314;2024-02-21T08:08:50;0.68;;;0.28;;
29934;SDS011;19905;53.370;-6.314;2024-02-21T08:11:19;0.20;;;0.10;;
29934;SDS011;19905;53.370;-6.314;2024-02-21T08:13:47;0.32;;;0.20;;
29934;SDS011;19905;53.370;-6.314;2024-02-21T08:16:15;0.22;;;0.20;;
29934;SDS011;19905;53.370;-6.314;2024-02-21T08:18:44;0.15;;;0.10;;
29934;SDS011;19905;53.370;-6.314;2024-02-21T08:21:12;1.50;;;0.30;;
29934;SDS011;19905;53.370;-6.314;2024-02-21T08:23:42;2.03;;;0.20;;
29934;SDS011;19905;53.370;-6.314;2024-02-21T08:26:11;1.88;;;0.30;;
29934;SDS011;19905;53.370;-6.314;2024-02-21T08:28:39;0.90;;;0.30;;
29934;SDS011;19905;53.370;-6.314;2024-02-21T08:31:07;1.10;;;0.30;;
29934;SDS011;19905;53.370;-6.314;2024-02-21T08:33:35;0.57;;;0.30;;
29934;SDS011;19905;53.370;-6.314;2024-02-21T08:36:04;2.67;;;0.50;;
29934;SDS011;19905;53.370;-6.314;2024-02-21T08:38:33;2.58;;;0.70;;
29934;SDS011;19905;53.370;-6.314;2024-02-21T08:41:02;2.63;;;1.30;;
29934;SDS011;19905;53.370;-6.314;2024-02-21T08:43:32;2.08;;;1.13;;
29934;SDS011;19905;53.370;-6.314;2024-02-21T08:46:02;3.03;;;1.60;;
29934;SDS011;19905;53.370;-6.314;2024-02-21T08:48:31;8.15;;;4.00;;
29934;SDS011;19905;53.370;-6.314;2024-02-21T08:50:59;4.13;;;1.80;;
29934;SDS011;19905;53.370;-6.314;2024-02-21T08:53:27;4.45;;;2.22;;
29934;SDS011;19905;53.370;-6.314;2024-02-21T08:55:56;3.78;;;2.38;;
29934;SDS011;19905;53.370;-6.314;2024-02-21T08:58:27;1.67;;;0.40;;
29934;SDS011;19905;53.370;-6.314;2024-02-21T09:00:55;1.80;;;0.93;;
29934;SDS011;19905;53.370;-6.314;2024-02-21T09:03:23;2.47;;;0.55;;
29934;SDS011;19905;53.370;-6.314;2024-02-21T09:05:52;0.70;;;0.30;;
29934;SDS011;19905;53.370;-6.314;2024-02-21T09:08:21;0.88;;;0.50;;
29934;SDS011;19905;53.370;-6.314;2024-02-21T09:10:51;2.83;;;0.50;;
29934;SDS011;19905;53.370;-6.314;2024-02-21T09:13:19;2.00;;;0.65;;
29934;SDS011;19905;53.370;-6.314;2024-02-21T09:15:49;3.92;;;0.52;;
29934;SDS011;19905;53.370;-6.314;2024-02-21T09:18:17;2.95;;;0.50;;
29934;SDS011;19905;53.370;-6.314;2024-02-21T09:20:46;4.68;;;1.23;;
29934;SDS011;19905;53.370;-6.314;2024-02-21T09:23:14;0.47;;;0.20;;
29934;SDS011;19905;53.370;-6.314;2024-02-21T09:25:43;0.47;;;0.30;;
29934;SDS011;19905;53.370;-6.314;2024-02-21T09:28:11;0.90;;;0.20;;
29934;SDS011;19905;53.370;-6.314;2024-02-21T09:30:40;0.30;;;0.20;;
29934;SDS011;19905;53.370;-6.314;2024-02-21T09:33:10;1.02;;;0.22;;
29934;SDS011;19905;53.370;-6.314;2024-02-21T09:35:48;0.80;;;0.30;;
29934;SDS011;19905;53.370;-6.314;2024-02-21T09:38:16;1.10;;;0.30;;
29934;SDS011;19905;53.370;-6.314;2024-02-21T09:40:45;1.42;;;0.32;;
29934;SDS011;19905;53.370;-6.314;2024-02-21T09:43:15;0.32;;;0.22;;
29934;SDS011;19905;53.370;-6.314;2024-02-21T09:45:47;5.30;;;0.68;;
29934;SDS011;19905;53.370;-6.314;2024-02-21T09:48:24;0.90;;;0.22;;
29934;SDS011;19905;53.370;-6.314;2024-02-21T09:50:58;3.60;;;0.40;;
29934;SDS011;19905;53.370;-6.314;2024-02-21T09:53:27;4.88;;;0.50;;
29934;SDS011;19905;53.370;-6.314;2024-02-21T09:55:56;0.30;;;0.30;;
29934;SDS011;19905;53.370;-6.314;2024-02-21T09:58:25;2.20;;;0.32;;
29934;SDS011;19905;53.370;-6.314;2024-02-21T10:00:56;0.35;;;0.22;;
29934;SDS011;19905;53.370;-6.314;2024-02-21T10:03:31;0.75;;;0.20;;
29934;SDS011;19905;53.370;-6.314;2024-02-21T10:06:00;0.70;;;0.30;;
29934;SDS011;19905;53.370;-6.314;2024-02-21T10:08:29;1.02;;;0.30;;
29934;SDS011;19905;53.370;-6.314;2024-02-21T10:10:57;2.22;;;0.30;;
29934;SDS011;19905;53.370;-6.314;2024-02-21T10:13:28;0.50;;;0.30;;
29934;SDS011;19905;53.370;-6.314;2024-02-21T10:16:00;1.00;;;0.20;;
29934;SDS011;19905;53.370;-6.314;2024-02-21T10:18:29;0.75;;;0.25;;
29934;SDS011;19905;53.370;-6.314;2024-02-21T10:21:03;0.93;;;0.28;;
29934;SDS011;19905;53.370;-6.314;2024-02-21T10:23:44;0.35;;;0.20;;
29934;SDS011;19905;53.370;-6.314;2024-02-21T10:26:12;0.85;;;0.30;;
29934;SDS011;19905;53.370;-6.314;2024-02-21T10:28:41;0.73;;;0.20;;
29934;SDS011;19905;53.370;-6.314;2024-02-21T10:31:20;0.45;;;0.30;;
29934;SDS011;19905;53.370;-6.314;2024-02-21T10:33:53;0.63;;;0.22;;
29934;SDS011;19905;53.370;-6.314;2024-02-21T10:36:23;1.00;;;0.30;;
29934;SDS011;19905;53.370;-6.314;2024-02-21T10:38:53;1.20;;;0.40;;
29934;SDS011;19905;53.370;-6.314;2024-02-21T10:41:22;0.52;;;0.20;;
29934;SDS011;19905;53.370;-6.314;2024-02-21T10:43:52;0.77;;;0.38;;
29934;SDS011;19905;53.370;-6.314;2024-02-21T10:46:22;1.27;;;0.30;;
29934;SDS011;19905;53.370;-6.314;2024-02-21T10:48:56;0.57;;;0.30;;
29934;SDS011;19905;53.370;-6.314;2024-02-21T10:51:28;0.57;;;0.28;;
29934;SDS011;19905;53.370;-6.314;2024-02-21T10:54:01;1.25;;;0.30;;
29934;SDS011;19905;53.370;-6.314;2024-02-21T10:56:31;0.57;;;0.30;;
29934;SDS011;19905;53.370;-6.314;2024-02-21T10:59:02;0.63;;;0.30;;
29934;SDS011;19905;53.370;-6.314;2024-02-21T11:01:31;2.75;;;0.22;;
29934;SDS011;19905;53.370;-6.314;2024-02-21T11:04:01;0.28;;;0.20;;
29934;SDS011;19905;53.370;-6.314;2024-02-21T11:06:32;0.43;;;0.30;;
29934;SDS011;19905;53.370;-6.314;2024-02-21T11:09:04;0.68;;;0.30;;
29934;SDS011;19905;53.370;-6.314;2024-02-21T11:11:33;1.15;;;0.30;;
29934;SDS011;19905;53.370;-6.314;2024-02-21T11:14:07;0.43;;;0.30;;
29934;SDS011;19905;53.370;-6.314;2024-02-21T11:16:36;1.08;;;0.40;;
29934;SDS011;19905;53.370;-6.314;2024-02-21T11:19:08;4.00;;;0.52;;
29934;SDS011;19905;53.370;-6.314;2024-02-21T11:21:39;1.55;;;0.40;;
29934;SDS011;19905;53.370;-6.314;2024-02-21T11:24:08;1.95;;;0.32;;
29934;SDS011;19905;53.370;-6.314;2024-02-21T11:26:37;1.67;;;0.40;;
29934;SDS011;19905;53.370;-6.314;2024-02-21T11:29:06;3.97;;;0.50;;
29934;SDS011;19905;53.370;-6.314;2024-02-21T11:31:39;2.70;;;0.40;;
29934;SDS011;19905;53.370;-6.314;2024-02-21T11:34:09;2.53;;;0.50;;
29934;SDS011;19905;53.370;-6.314;2024-02-21T11:36:50;3.03;;;0.40;;
29934;SDS011;19905;53.370;-6.314;2024-02-21T11:39:21;1.73;;;0.50;;
29934;SDS011;19905;53.370;-6.314;2024-02-21T11:42:01;1.95;;;0.60;;
29934;SDS011;19905;53.370;-6.314;2024-02-21T11:44:30;6.00;;;0.80;;
29934;SDS011;19905;53.370;-6.314;2024-02-21T11:46:59;3.83;;;0.50;;
29934;SDS011;19905;53.370;-6.314;2024-02-21T11:49:28;2.13;;;0.40;;
29934;SDS011;19905;53.370;-6.314;2024-02-21T11:52:02;0.98;;;0.38;;
29934;SDS011;19905;53.370;-6.314;2024-02-21T11:54:32;3.10;;;0.40;;
29934;SDS011;19905;53.370;-6.314;2024-02-21T11:57:00;2.90;;;0.65;;
29934;SDS011;19905;53.370;-6.314;2024-02-21T11:59:30;2.40;;;0.57;;
29934;SDS011;19905;53.370;-6.314;2024-02-21T12:01:59;2.03;;;0.50;;
29934;SDS011;19905;53.370;-6.314;2024-02-21T12:04:27;1.38;;;0.60;;
29934;SDS011;19905;53.370;-6.314;2024-02-21T12:06:57;3.63;;;0.50;;
29934;SDS011;19905;53.370;-6.314;2024-02-21T12:09:28;2.80;;;0.45;;
29934;SDS011;19905;53.370;-6.314;2024-02-21T12:11:57;3.17;;;0.75;;
29934;SDS011;19905;53.370;-6.314;2024-02-21T12:14:27;4.00;;;0.80;;
29934;SDS011;19905;53.370;-6.314;2024-02-21T12:16:57;1.17;;;0.32;;
29934;SDS011;19905;53.370;-6.314;2024-02-21T12:19:25;7.63;;;0.95;;
29934;SDS011;19905;53.370;-6.314;2024-02-21T12:21:53;2.83;;;0.50;;
29934;SDS011;19905;53.370;-6.314;2024-02-21T12:24:22;3.08;;;0.60;;
29934;SDS011;19905;53.370;-6.314;2024-02-21T12:26:52;2.17;;;0.50;;
29934;SDS011;19905;53.370;-6.314;2024-02-21T12:29:21;4.55;;;0.80;;
29934;SDS011;19905;53.370;-6.314;2024-02-21T12:31:51;3.20;;;0.55;;
29934;SDS011;19905;53.370;-6.314;2024-02-21T12:34:20;4.50;;;0.80;;
29934;SDS011;19905;53.370;-6.314;2024-02-21T12:37:10;3.70;;;0.70;;
29934;SDS011;19905;53.370;-6.314;2024-02-21T12:39:40;3.83;;;0.80;;
29934;SDS011;19905;53.370;-6.314;2024-02-21T12:42:10;3.45;;;0.73;;
29934;SDS011;19905;53.370;-6.314;2024-02-21T12:44:40;4.68;;;0.90;;
29934;SDS011;19905;53.370;-6.314;2024-02-21T12:47:09;6.72;;;0.90;;
29934;SDS011;19905;53.370;-6.314;2024-02-21T12:49:38;6.38;;;0.90;;
29934;SDS011;19905;53.370;-6.314;2024-02-21T12:52:11;6.35;;;0.80;;
29934;SDS011;19905;53.370;-6.314;2024-02-21T12:54:41;8.80;;;1.13;;
29934;SDS011;19905;53.370;-6.314;2024-02-21T12:57:11;9.63;;;0.88;;
29934;SDS011;19905;53.370;-6.314;2024-02-21T12:59:39;10.02;;;1.17;;
29934;SDS011;19905;53.370;-6.314;2024-02-21T13:02:08;6.10;;;1.40;;
29934;SDS011;19905;53.370;-6.314;2024-02-21T13:04:37;5.47;;;0.88;;
29934;SDS011;19905;53.370;-6.314;2024-02-21T13:07:08;7.40;;;1.35;;
29934;SDS011;19905;53.370;-6.314;2024-02-21T13:09:36;10.45;;;0.90;;
29934;SDS011;19905;53.370;-6.314;2024-02-21T13:12:05;6.05;;;0.98;;
29934;SDS011;19905;53.370;-6.314;2024-02-21T13:14:35;6.38;;;1.05;;
29934;SDS011;19905;53.370;-6.314;2024-02-21T13:17:07;4.88;;;0.98;;
29934;SDS011;19905;53.370;-6.314;2024-02-21T13:19:35;6.65;;;0.93;;
29934;SDS011;19905;53.370;-6.314;2024-02-21T13:22:04;8.23;;;1.20;;
29934;SDS011;19905;53.370;-6.314;2024-02-21T13:24:33;3.85;;;0.88;;
29934;SDS011;19905;53.370;-6.314;2024-02-21T13:27:01;5.72;;;1.25;;
29934;SDS011;19905;53.370;-6.314;2024-02-21T13:29:31;5.72;;;1.10;;
29934;SDS011;19905;53.370;-6.314;2024-02-21T13:32:01;5.20;;;1.17;;
29934;SDS011;19905;53.370;-6.314;2024-02-21T13:34:30;3.67;;;0.73;;
29934;SDS011;19905;53.370;-6.314;2024-02-21T13:36:59;5.22;;;1.08;;
29934;SDS011;19905;53.370;-6.314;2024-02-21T13:39:28;4.63;;;0.68;;
29934;SDS011;19905;53.370;-6.314;2024-02-21T13:41:56;4.50;;;0.82;;
29934;SDS011;19905;53.370;-6.314;2024-02-21T13:44:26;7.35;;;0.98;;
29934;SDS011;19905;53.370;-6.314;2024-02-21T13:46:57;2.35;;;0.80;;
29934;SDS011;19905;53.370;-6.314;2024-02-21T13:49:28;4.00;;;1.13;;
29934;SDS011;19905;53.370;-6.314;2024-02-21T13:51:57;3.90;;;0.80;;
29934;SDS011;19905;53.370;-6.314;2024-02-21T13:54:25;7.35;;;0.93;;
29934;SDS011;19905;53.370;-6.314;2024-02-21T13:56:53;4.07;;;0.77;;
29934;SDS011;19905;53.370;-6.314;2024-02-21T13:59:22;1.80;;;0.60;;
29934;SDS011;19905;53.370;-6.314;2024-02-21T14:01:50;4.88;;;0.80;;
29934;SDS011;19905;53.370;-6.314;2024-02-21T14:04:18;4.05;;;0.82;;
29934;SDS011;19905;53.370;-6.314;2024-02-21T14:06:48;3.70;;;0.73;;
29934;SDS011;19905;53.370;-6.314;2024-02-21T14:09:17;8.13;;;0.93;;
29934;SDS011;19905;53.370;-6.314;2024-02-21T14:11:45;5.57;;;0.65;;
29934;SDS011;19905;53.370;-6.314;2024-02-21T14:14:13;6.90;;;0.95;;
29934;SDS011;19905;53.370;-6.314;2024-02-21T14:16:42;5.15;;;1.05;;
29934;SDS011;19905;53.370;-6.314;2024-02-21T14:19:10;8.00;;;1.05;;
29934;SDS011;19905;53.370;-6.314;2024-02-21T14:21:40;6.15;;;1.10;;
29934;SDS011;19905;53.370;-6.314;2024-02-21T14:24:10;7.03;;;1.25;;
29934;SDS011;19905;53.370;-6.314;2024-02-21T14:26:40;8.07;;;1.17;;
29934;SDS011;19905;53.370;-6.314;2024-02-21T14:29:10;5.10;;;1.10;;
29934;SDS011;19905;53.370;-6.314;2024-02-21T14:31:40;10.50;;;1.05;;
29934;SDS011;19905;53.370;-6.314;2024-02-21T14:34:10;9.25;;;1.77;;
29934;SDS011;19905;53.370;-6.314;2024-02-21T14:36:39;5.57;;;1.13;;
29934;SDS011;19905;53.370;-6.314;2024-02-21T14:39:09;8.73;;;1.35;;
29934;SDS011;19905;53.370;-6.314;2024-02-21T14:41:37;7.43;;;1.20;;
29934;SDS011;19905;53.370;-6.314;2024-02-21T14:44:06;6.18;;;1.20;;
29934;SDS011;19905;53.370;-6.314;2024-02-21T14:46:37;7.13;;;1.13;;
29934;SDS011;19905;53.370;-6.314;2024-02-21T14:49:06;11.07;;;1.30;;
29934;SDS011;19905;53.370;-6.314;2024-02-21T14:51:34;6.72;;;1.25;;
29934;SDS011;19905;53.370;-6.314;2024-02-21T14:54:03;8.30;;;1.20;;
29934;SDS011;19905;53.370;-6.314;2024-02-21T14:56:32;7.25;;;1.52;;
29934;SDS011;19905;53.370;-6.314;2024-02-21T14:59:00;9.82;;;1.20;;
29934;SDS011;19905;53.370;-6.314;2024-02-21T15:01:40;7.20;;;1.38;;
29934;SDS011;19905;53.370;-6.314;2024-02-21T15:04:09;10.48;;;1.88;;